Titusville, Florida
Current Conditions -  °F | °C
As of 2:58 AM on Sunday 26 Oct 2014 (Local Time) from KTTS Reporting Station
Clear Clear  
Wind Chill: 58°   Ceiling: Unl
Heat Index: 58°   Visibility: 10mi
Dew Point: 54°   Wind: 5mph
Humidity: 89%   Direction: 290°WNW
Pressure: 29.95"   Gusts: NA
Location:  28.61°N, 80.81°W
Report Text: KTTS 260658Z AUTO 29004KT 10SM CLR 14/12 A2995 RMK AO2 SLP145 T01420124 VISNO RWY33 CHINO RWY33
Loading
Personal Weather Stations






























Interactive Weather Map
Tropical Storm Tracking
New forecast layout! Learn more

10-Day Weather Forecast

Advertisements
Track Severe Weather on mobile